sensor_id;sensor_type;location;lat;lon;timestamp;pressure;altitude;pressure_sealevel;temperature;humidity
30598;BME280;17365;48.878;8.334;2023-05-22T00:00:50;99629.94;;;16.99;83.11
30598;BME280;17365;48.878;8.334;2023-05-22T00:03:16;99620.41;;;16.96;83.29
30598;BME280;17365;48.878;8.334;2023-05-22T00:05:42;99619.94;;;16.83;83.89
30598;BME280;17365;48.878;8.334;2023-05-22T00:08:07;99623.81;;;16.72;84.57
30598;BME280;17365;48.878;8.334;2023-05-22T00:10:39;99618.97;;;16.86;83.74
30598;BME280;17365;48.878;8.334;2023-05-22T00:13:04;99620.56;;;16.92;83.35
30598;BME280;17365;48.878;8.334;2023-05-22T00:15:29;99625.00;;;16.90;83.70
30598;BME280;17365;48.878;8.334;2023-05-22T00:17:55;99615.56;;;16.84;84.18
30598;BME280;17365;48.878;8.334;2023-05-22T00:20:20;99616.13;;;16.94;83.85
30598;BME280;17365;48.878;8.334;2023-05-22T00:22:45;99622.38;;;16.60;85.44
30598;BME280;17365;48.878;8.334;2023-05-22T00:25:12;99620.06;;;16.80;84.39
30598;BME280;17365;48.878;8.334;2023-05-22T00:27:39;99615.50;;;16.85;83.84
30598;BME280;17365;48.878;8.334;2023-05-22T00:30:05;99616.91;;;16.69;84.62
30598;BME280;17365;48.878;8.334;2023-05-22T00:32:31;99622.47;;;16.86;83.78
30598;BME280;17365;48.878;8.334;2023-05-22T00:34:56;99617.72;;;16.71;84.49
30598;BME280;17365;48.878;8.334;2023-05-22T00:37:21;99627.00;;;16.81;84.00
30598;BME280;17365;48.878;8.334;2023-05-22T00:39:47;99620.53;;;16.64;85.04
30598;BME280;17365;48.878;8.334;2023-05-22T00:42:12;99622.50;;;16.57;85.34
30598;BME280;17365;48.878;8.334;2023-05-22T00:44:37;99624.38;;;16.52;86.32
30598;BME280;17365;48.878;8.334;2023-05-22T00:47:03;99625.44;;;16.46;86.35
30598;BME280;17365;48.878;8.334;2023-05-22T00:49:28;99618.28;;;16.51;85.66
30598;BME280;17365;48.878;8.334;2023-05-22T00:51:53;99616.44;;;16.25;87.24
30598;BME280;17365;48.878;8.334;2023-05-22T00:54:18;99615.06;;;16.43;86.58
30598;BME280;17365;48.878;8.334;2023-05-22T00:56:44;99611.69;;;16.38;87.10
30598;BME280;17365;48.878;8.334;2023-05-22T00:59:09;99612.47;;;16.42;86.68
30598;BME280;17365;48.878;8.334;2023-05-22T01:01:34;99617.91;;;16.36;87.08
30598;BME280;17365;48.878;8.334;2023-05-22T01:04:05;99612.13;;;16.54;86.03
30598;BME280;17365;48.878;8.334;2023-05-22T01:06:33;99618.75;;;16.36;87.70
30598;BME280;17365;48.878;8.334;2023-05-22T01:08:59;99627.34;;;15.79;90.59
30598;BME280;17365;48.878;8.334;2023-05-22T01:11:27;99624.16;;;16.30;88.24
30598;BME280;17365;48.878;8.334;2023-05-22T01:16:36;99622.63;;;16.23;87.87
30598;BME280;17365;48.878;8.334;2023-05-22T01:19:08;99627.47;;;16.37;87.50
30598;BME280;17365;48.878;8.334;2023-05-22T01:21:46;99625.22;;;16.52;86.42
30598;BME280;17365;48.878;8.334;2023-05-22T01:26:49;99638.84;;;16.36;87.25
30598;BME280;17365;48.878;8.334;2023-05-22T01:29:28;99644.72;;;16.44;86.94
30598;BME280;17365;48.878;8.334;2023-05-22T01:31:56;99637.03;;;16.38;86.94
30598;BME280;17365;48.878;8.334;2023-05-22T01:34:22;99642.47;;;16.32;87.10
30598;BME280;17365;48.878;8.334;2023-05-22T01:36:48;99646.50;;;16.12;88.65
30598;BME280;17365;48.878;8.334;2023-05-22T01:39:15;99650.66;;;15.88;90.75
30598;BME280;17365;48.878;8.334;2023-05-22T01:41:41;99654.78;;;15.97;90.90
30598;BME280;17365;48.878;8.334;2023-05-22T01:44:06;99646.69;;;16.05;90.75
30598;BME280;17365;48.878;8.334;2023-05-22T01:46:31;99645.03;;;16.02;91.39
30598;BME280;17365;48.878;8.334;2023-05-22T01:48:57;99649.16;;;16.11;90.94
30598;BME280;17365;48.878;8.334;2023-05-22T01:51:25;99653.38;;;15.84;92.81
30598;BME280;17365;48.878;8.334;2023-05-22T01:53:58;99657.41;;;15.97;92.00
30598;BME280;17365;48.878;8.334;2023-05-22T01:56:35;99652.22;;;15.94;93.35
30598;BME280;17365;48.878;8.334;2023-05-22T01:59:08;99650.88;;;16.12;92.09
30598;BME280;17365;48.878;8.334;2023-05-22T02:01:34;99663.13;;;15.79;94.56
30598;BME280;17365;48.878;8.334;2023-05-22T02:04:01;99673.78;;;15.35;98.69
30598;BME280;17365;48.878;8.334;2023-05-22T02:06:28;99677.03;;;15.45;97.35
30598;BME280;17365;48.878;8.334;2023-05-22T02:08:56;99672.81;;;15.75;94.04
30598;BME280;17365;48.878;8.334;2023-05-22T02:11:21;99669.69;;;15.93;93.03
30598;BME280;17365;48.878;8.334;2023-05-22T02:13:50;99677.00;;;15.81;93.83
30598;BME280;17365;48.878;8.334;2023-05-22T02:16:16;99676.78;;;16.21;91.23
30598;BME280;17365;48.878;8.334;2023-05-22T02:18:41;99673.03;;;16.29;90.92
30598;BME280;17365;48.878;8.334;2023-05-22T02:21:07;99670.78;;;16.47;89.81
30598;BME280;17365;48.878;8.334;2023-05-22T02:23:32;99670.03;;;16.43;89.78
30598;BME280;17365;48.878;8.334;2023-05-22T02:25:58;99675.66;;;16.29;90.33
30598;BME280;17365;48.878;8.334;2023-05-22T02:28:23;99666.28;;;16.52;89.14
30598;BME280;17365;48.878;8.334;2023-05-22T02:30:48;99664.66;;;16.48;89.60
30598;BME280;17365;48.878;8.334;2023-05-22T02:33:13;99667.66;;;16.65;88.82
30598;BME280;17365;48.878;8.334;2023-05-22T02:35:42;99664.75;;;16.74;88.31
30598;BME280;17365;48.878;8.334;2023-05-22T02:38:07;99663.56;;;16.84;87.68
30598;BME280;17365;48.878;8.334;2023-05-22T02:40:32;99665.28;;;16.85;87.94
30598;BME280;17365;48.878;8.334;2023-05-22T02:42:57;99661.44;;;16.69;89.05
30598;BME280;17365;48.878;8.334;2023-05-22T02:45:22;99664.75;;;16.74;89.05
30598;BME280;17365;48.878;8.334;2023-05-22T02:47:48;99663.91;;;16.74;89.22
30598;BME280;17365;48.878;8.334;2023-05-22T02:50:13;99664.59;;;16.80;88.77
30598;BME280;17365;48.878;8.334;2023-05-22T02:52:38;99664.81;;;16.73;89.55
30598;BME280;17365;48.878;8.334;2023-05-22T02:55:04;99658.63;;;16.46;91.21
30598;BME280;17365;48.878;8.334;2023-05-22T02:57:29;99661.41;;;16.40;92.87
30598;BME280;17365;48.878;8.334;2023-05-22T02:59:54;99661.88;;;16.54;92.02
30598;BME280;17365;48.878;8.334;2023-05-22T03:02:21;99663.47;;;16.58;91.55
30598;BME280;17365;48.878;8.334;2023-05-22T03:04:46;99661.66;;;16.60;91.21
30598;BME280;17365;48.878;8.334;2023-05-22T03:07:11;99655.13;;;16.76;89.91
30598;BME280;17365;48.878;8.334;2023-05-22T03:09:37;99664.44;;;16.55;91.67
30598;BME280;17365;48.878;8.334;2023-05-22T03:12:02;99660.66;;;16.64;90.66
30598;BME280;17365;48.878;8.334;2023-05-22T03:14:28;99661.13;;;16.49;91.92
30598;BME280;17365;48.878;8.334;2023-05-22T03:16:54;99664.38;;;16.57;90.94
30598;BME280;17365;48.878;8.334;2023-05-22T03:19:20;99662.84;;;16.50;91.40
30598;BME280;17365;48.878;8.334;2023-05-22T03:21:46;99657.50;;;16.54;91.07
30598;BME280;17365;48.878;8.334;2023-05-22T03:24:12;99665.34;;;16.54;91.22
30598;BME280;17365;48.878;8.334;2023-05-22T03:26:37;99664.81;;;16.42;91.90
30598;BME280;17365;48.878;8.334;2023-05-22T03:29:03;99671.72;;;16.46;91.81
30598;BME280;17365;48.878;8.334;2023-05-22T03:31:29;99670.50;;;15.95;95.76
30598;BME280;17365;48.878;8.334;2023-05-22T03:33:58;99667.00;;;16.27;93.44
30598;BME280;17365;48.878;8.334;2023-05-22T03:36:23;99664.50;;;16.23;93.76
30598;BME280;17365;48.878;8.334;2023-05-22T03:38:49;99666.63;;;16.40;92.34
30598;BME280;17365;48.878;8.334;2023-05-22T03:41:14;99668.34;;;16.41;92.39
30598;BME280;17365;48.878;8.334;2023-05-22T03:43:39;99674.63;;;16.35;92.66
30598;BME280;17365;48.878;8.334;2023-05-22T03:46:05;99671.72;;;16.46;91.70
30598;BME280;17365;48.878;8.334;2023-05-22T03:48:32;99666.38;;;16.49;91.27
30598;BME280;17365;48.878;8.334;2023-05-22T03:50:57;99664.59;;;16.49;91.59
30598;BME280;17365;48.878;8.334;2023-05-22T03:53:22;99668.31;;;16.42;91.66
30598;BME280;17365;48.878;8.334;2023-05-22T03:55:48;99665.56;;;16.47;92.30
30598;BME280;17365;48.878;8.334;2023-05-22T03:58:13;99664.28;;;16.60;91.16
30598;BME280;17365;48.878;8.334;2023-05-22T04:00:38;99667.56;;;16.68;90.41
30598;BME280;17365;48.878;8.334;2023-05-22T04:03:04;99668.38;;;16.70;90.24
30598;BME280;17365;48.878;8.334;2023-05-22T04:05:29;99670.03;;;16.73;90.12
30598;BME280;17365;48.878;8.334;2023-05-22T04:07:56;99668.91;;;16.81;89.36
30598;BME280;17365;48.878;8.334;2023-05-22T04:10:21;99671.31;;;16.89;89.04
30598;BME280;17365;48.878;8.334;2023-05-22T04:12:47;99672.97;;;16.92;89.17
30598;BME280;17365;48.878;8.334;2023-05-22T04:15:12;99665.97;;;16.92;89.23
30598;BME280;17365;48.878;8.334;2023-05-22T04:17:38;99665.00;;;17.23;87.19
30598;BME280;17365;48.878;8.334;2023-05-22T04:20:04;99669.47;;;17.19;87.14
30598;BME280;17365;48.878;8.334;2023-05-22T04:22:30;99665.00;;;17.23;86.95
30598;BME280;17365;48.878;8.334;2023-05-22T04:24:56;99672.19;;;17.42;86.31
30598;BME280;17365;48.878;8.334;2023-05-22T04:27:21;99674.28;;;17.33;86.06
30598;BME280;17365;48.878;8.334;2023-05-22T04:29:47;99674.97;;;17.38;85.92
30598;BME280;17365;48.878;8.334;2023-05-22T04:32:12;99677.25;;;17.49;86.35
30598;BME280;17365;48.878;8.334;2023-05-22T04:34:41;99681.00;;;17.66;85.58
30598;BME280;17365;48.878;8.334;2023-05-22T04:37:08;99670.28;;;17.48;86.86
30598;BME280;17365;48.878;8.334;2023-05-22T04:39:34;99670.63;;;17.37;87.08
30598;BME280;17365;48.878;8.334;2023-05-22T04:41:59;99679.59;;;18.08;83.91
30598;BME280;17365;48.878;8.334;2023-05-22T04:44:29;99683.25;;;17.79;82.57
30598;BME280;17365;48.878;8.334;2023-05-22T04:46:58;99675.22;;;17.83;81.94
30598;BME280;17365;48.878;8.334;2023-05-22T04:49:23;99680.66;;;17.24;83.71
30598;BME280;17365;48.878;8.334;2023-05-22T04:51:50;99688.31;;;17.30;84.39
30598;BME280;17365;48.878;8.334;2023-05-22T04:54:15;99676.25;;;17.78;83.73
30598;BME280;17365;48.878;8.334;2023-05-22T04:56:40;99684.13;;;17.79;82.73
30598;BME280;17365;48.878;8.334;2023-05-22T04:59:05;99681.41;;;18.06;81.85
30598;BME280;17365;48.878;8.334;2023-05-22T05:01:32;99679.34;;;17.90;82.30
30598;BME280;17365;48.878;8.334;2023-05-22T05:03:58;99687.22;;;17.90;81.76
30598;BME280;17365;48.878;8.334;2023-05-22T05:06:24;99679.97;;;18.69;79.54
30598;BME280;17365;48.878;8.334;2023-05-22T05:08:50;99684.25;;;18.24;80.66
30598;BME280;17365;48.878;8.334;2023-05-22T05:11:16;99682.28;;;19.00;77.39
30598;BME280;17365;48.878;8.334;2023-05-22T05:13:42;99683.97;;;19.23;76.64
30598;BME280;17365;48.878;8.334;2023-05-22T05:16:07;99679.13;;;19.56;74.44
30598;BME280;17365;48.878;8.334;2023-05-22T05:18:32;99676.00;;;19.46;73.29
30598;BME280;17365;48.878;8.334;2023-05-22T05:20:57;99677.72;;;19.47;74.96
30598;BME280;17365;48.878;8.334;2023-05-22T05:23:22;99680.94;;;19.54;75.00
30598;BME280;17365;48.878;8.334;2023-05-22T05:25:48;99682.81;;;19.30;72.36
30598;BME280;17365;48.878;8.334;2023-05-22T05:28:13;99685.88;;;19.19;75.10
30598;BME280;17365;48.878;8.334;2023-05-22T05:30:38;99693.25;;;19.75;72.66
30598;BME280;17365;48.878;8.334;2023-05-22T05:33:04;99684.47;;;19.10;74.37
30598;BME280;17365;48.878;8.334;2023-05-22T05:35:30;99683.56;;;19.55;73.65
30598;BME280;17365;48.878;8.334;2023-05-22T05:37:55;99687.19;;;19.73;73.76
30598;BME280;17365;48.878;8.334;2023-05-22T05:40:20;99687.22;;;20.12;71.11
30598;BME280;17365;48.878;8.334;2023-05-22T05:42:45;99686.56;;;20.27;71.28
30598;BME280;17365;48.878;8.334;2023-05-22T05:45:11;99690.09;;;19.23;72.97
30598;BME280;17365;48.878;8.334;2023-05-22T05:47:37;99691.44;;;19.55;73.26
30598;BME280;17365;48.878;8.334;2023-05-22T05:50:02;99701.66;;;18.97;77.23
30598;BME280;17365;48.878;8.334;2023-05-22T05:52:27;99705.69;;;19.06;78.49
30598;BME280;17365;48.878;8.334;2023-05-22T05:54:56;99700.22;;;19.54;75.38
30598;BME280;17365;48.878;8.334;2023-05-22T05:57:21;99710.28;;;19.87;74.84
30598;BME280;17365;48.878;8.334;2023-05-22T05:59:46;99700.00;;;20.01;73.72
30598;BME280;17365;48.878;8.334;2023-05-22T06:02:12;99697.13;;;20.07;73.21
30598;BME280;17365;48.878;8.334;2023-05-22T06:04:37;99707.06;;;20.60;72.55
30598;BME280;17365;48.878;8.334;2023-05-22T06:07:02;99709.56;;;21.01;70.55
30598;BME280;17365;48.878;8.334;2023-05-22T06:09:27;99712.47;;;20.94;69.83
30598;BME280;17365;48.878;8.334;2023-05-22T06:11:52;99718.19;;;20.85;69.03
30598;BME280;17365;48.878;8.334;2023-05-22T06:14:18;99706.44;;;20.34;71.99
30598;BME280;17365;48.878;8.334;2023-05-22T06:16:43;99716.50;;;20.25;72.61
30598;BME280;17365;48.878;8.334;2023-05-22T06:19:09;99719.06;;;20.26;72.55
30598;BME280;17365;48.878;8.334;2023-05-22T06:21:34;99712.56;;;20.35;72.35
30598;BME280;17365;48.878;8.334;2023-05-22T06:24:00;99719.53;;;20.94;70.66
30598;BME280;17365;48.878;8.334;2023-05-22T06:26:25;99716.31;;;20.50;71.98
30598;BME280;17365;48.878;8.334;2023-05-22T06:28:51;99721.03;;;20.81;71.66
30598;BME280;17365;48.878;8.334;2023-05-22T06:31:17;99723.97;;;20.15;74.00
30598;BME280;17365;48.878;8.334;2023-05-22T06:33:43;99724.34;;;20.26;74.80
30598;BME280;17365;48.878;8.334;2023-05-22T06:36:08;99727.78;;;19.88;76.14
30598;BME280;17365;48.878;8.334;2023-05-22T06:38:35;99733.09;;;20.27;74.85
30598;BME280;17365;48.878;8.334;2023-05-22T06:41:01;99725.00;;;20.71;72.50
30598;BME280;17365;48.878;8.334;2023-05-22T06:43:27;99723.31;;;20.51;72.75
30598;BME280;17365;48.878;8.334;2023-05-22T06:45:52;99728.38;;;20.74;71.54
30598;BME280;17365;48.878;8.334;2023-05-22T06:48:17;99724.41;;;20.84;71.95
30598;BME280;17365;48.878;8.334;2023-05-22T06:50:42;99726.31;;;21.00;70.85
30598;BME280;17365;48.878;8.334;2023-05-22T06:53:07;99727.66;;;20.89;71.63
30598;BME280;17365;48.878;8.334;2023-05-22T06:55:33;99728.88;;;20.63;72.16
30598;BME280;17365;48.878;8.334;2023-05-22T06:57:58;99726.72;;;20.53;73.38
30598;BME280;17365;48.878;8.334;2023-05-22T07:00:23;99731.94;;;20.92;71.49
30598;BME280;17365;48.878;8.334;2023-05-22T07:02:49;99732.94;;;20.89;71.77
30598;BME280;17365;48.878;8.334;2023-05-22T07:05:14;99737.16;;;21.31;70.52
30598;BME280;17365;48.878;8.334;2023-05-22T07:07:39;99729.63;;;20.26;74.66
30598;BME280;17365;48.878;8.334;2023-05-22T07:10:05;99736.34;;;20.13;75.78
30598;BME280;17365;48.878;8.334;2023-05-22T07:12:31;99734.84;;;20.08;77.44
30598;BME280;17365;48.878;8.334;2023-05-22T07:14:56;99740.59;;;20.36;75.27
30598;BME280;17365;48.878;8.334;2023-05-22T07:17:23;99745.66;;;20.42;74.45
30598;BME280;17365;48.878;8.334;2023-05-22T07:19:48;99740.28;;;21.02;73.20
30598;BME280;17365;48.878;8.334;2023-05-22T07:22:13;99741.78;;;20.88;72.77
30598;BME280;17365;48.878;8.334;2023-05-22T07:24:39;99749.66;;;20.51;75.89
30598;BME280;17365;48.878;8.334;2023-05-22T07:27:04;99742.13;;;20.81;74.88
30598;BME280;17365;48.878;8.334;2023-05-22T07:29:29;99744.84;;;20.98;74.73
30598;BME280;17365;48.878;8.334;2023-05-22T07:31:55;99746.97;;;21.09;72.87
30598;BME280;17365;48.878;8.334;2023-05-22T07:34:20;99752.09;;;20.93;73.75
30598;BME280;17365;48.878;8.334;2023-05-22T07:36:46;99745.31;;;20.69;74.30
30598;BME280;17365;48.878;8.334;2023-05-22T07:39:11;99751.69;;;21.21;71.55
30598;BME280;17365;48.878;8.334;2023-05-22T07:41:37;99754.25;;;21.22;70.78
30598;BME280;17365;48.878;8.334;2023-05-22T07:44:02;99746.63;;;22.23;67.56
30598;BME280;17365;48.878;8.334;2023-05-22T07:46:27;99747.22;;;22.46;66.90
30598;BME280;17365;48.878;8.334;2023-05-22T07:48:52;99752.53;;;21.76;67.59
30598;BME280;17365;48.878;8.334;2023-05-22T07:51:18;99744.41;;;21.62;68.56
30598;BME280;17365;48.878;8.334;2023-05-22T07:53:43;99750.84;;;22.10;68.06
30598;BME280;17365;48.878;8.334;2023-05-22T07:56:08;99749.13;;;22.09;67.71
30598;BME280;17365;48.878;8.334;2023-05-22T07:58:33;99749.75;;;22.80;64.93
30598;BME280;17365;48.878;8.334;2023-05-22T08:00:58;99746.00;;;22.18;64.78
30598;BME280;17365;48.878;8.334;2023-05-22T08:03:25;99755.22;;;22.44;63.69
30598;BME280;17365;48.878;8.334;2023-05-22T08:05:50;99747.47;;;22.24;64.15
30598;BME280;17365;48.878;8.334;2023-05-22T08:08:15;99754.22;;;22.62;61.65
30598;BME280;17365;48.878;8.334;2023-05-22T08:10:41;99749.19;;;22.58;62.78
30598;BME280;17365;48.878;8.334;2023-05-22T08:13:06;99752.03;;;22.55;62.59
30598;BME280;17365;48.878;8.334;2023-05-22T08:15:31;99753.66;;;22.05;64.66
30598;BME280;17365;48.878;8.334;2023-05-22T08:17:58;99754.69;;;22.71;62.57
30598;BME280;17365;48.878;8.334;2023-05-22T08:20:23;99750.31;;;23.03;62.49
30598;BME280;17365;48.878;8.334;2023-05-22T08:22:48;99757.50;;;23.16;60.77
30598;BME280;17365;48.878;8.334;2023-05-22T08:25:13;99757.75;;;23.12;60.70
30598;BME280;17365;48.878;8.334;2023-05-22T08:27:39;99744.81;;;23.53;58.71
30598;BME280;17365;48.878;8.334;2023-05-22T08:30:04;99747.47;;;23.53;58.40
30598;BME280;17365;48.878;8.334;2023-05-22T08:32:29;99751.00;;;23.38;58.84
30598;BME280;17365;48.878;8.334;2023-05-22T08:34:55;99754.06;;;23.46;59.96
30598;BME280;17365;48.878;8.334;2023-05-22T08:37:20;99745.84;;;23.50;59.00
30598;BME280;17365;48.878;8.334;2023-05-22T08:39:45;99746.69;;;23.67;59.19
30598;BME280;17365;48.878;8.334;2023-05-22T08:42:10;99738.97;;;23.78;58.57
30598;BME280;17365;48.878;8.334;2023-05-22T08:44:35;99737.03;;;23.66;58.62
30598;BME280;17365;48.878;8.334;2023-05-22T08:47:01;99746.41;;;23.26;60.37
30598;BME280;17365;48.878;8.334;2023-05-22T08:49:29;99745.63;;;23.08;59.77
30598;BME280;17365;48.878;8.334;2023-05-22T08:52:09;99736.88;;;23.99;58.77
30598;BME280;17365;48.878;8.334;2023-05-22T08:54:35;99747.22;;;23.10;60.36
30598;BME280;17365;48.878;8.334;2023-05-22T08:57:03;99741.34;;;23.05;61.49
30598;BME280;17365;48.878;8.334;2023-05-22T08:59:29;99745.56;;;24.01;59.40
30598;BME280;17365;48.878;8.334;2023-05-22T09:01:54;99738.72;;;24.13;57.77
30598;BME280;17365;48.878;8.334;2023-05-22T09:04:21;99732.72;;;24.23;59.12
30598;BME280;17365;48.878;8.334;2023-05-22T09:06:48;99729.94;;;24.83;56.51
30598;BME280;17365;48.878;8.334;2023-05-22T09:09:13;99737.38;;;25.19;54.53
30598;BME280;17365;48.878;8.334;2023-05-22T09:11:38;99733.81;;;24.78;56.96
30598;BME280;17365;48.878;8.334;2023-05-22T09:14:07;99734.94;;;25.43;55.95
30598;BME280;17365;48.878;8.334;2023-05-22T09:16:33;99731.50;;;25.29;54.53
30598;BME280;17365;48.878;8.334;2023-05-22T09:19:07;99732.59;;;24.83;55.69
30598;BME280;17365;48.878;8.334;2023-05-22T09:21:32;99729.91;;;25.12;54.40
30598;BME280;17365;48.878;8.334;2023-05-22T09:24:00;99737.84;;;25.26;54.06
30598;BME280;17365;48.878;8.334;2023-05-22T09:26:29;99731.88;;;25.76;52.99
30598;BME280;17365;48.878;8.334;2023-05-22T09:28:54;99730.22;;;25.07;54.28
30598;BME280;17365;48.878;8.334;2023-05-22T09:31:20;99726.22;;;25.00;54.36
30598;BME280;17365;48.878;8.334;2023-05-22T09:33:46;99722.69;;;24.58;55.22
30598;BME280;17365;48.878;8.334;2023-05-22T09:36:12;99732.22;;;25.04;54.95
30598;BME280;17365;48.878;8.334;2023-05-22T09:38:37;99720.72;;;25.17;54.41
30598;BME280;17365;48.878;8.334;2023-05-22T09:41:03;99721.03;;;25.25;54.08
30598;BME280;17365;48.878;8.334;2023-05-22T09:43:28;99726.72;;;25.07;54.51
30598;BME280;17365;48.878;8.334;2023-05-22T09:45:56;99722.03;;;25.10;53.19
30598;BME280;17365;48.878;8.334;2023-05-22T09:48:22;99723.13;;;24.65;54.18
30598;BME280;17365;48.878;8.334;2023-05-22T09:50:47;99722.47;;;24.76;54.28
30598;BME280;17365;48.878;8.334;2023-05-22T09:53:12;99723.94;;;25.08;53.47
30598;BME280;17365;48.878;8.334;2023-05-22T09:55:40;99726.22;;;25.41;53.07
30598;BME280;17365;48.878;8.334;2023-05-22T09:58:05;99718.66;;;25.08;53.51
30598;BME280;17365;48.878;8.334;2023-05-22T10:00:31;99723.50;;;25.55;51.15
30598;BME280;17365;48.878;8.334;2023-05-22T10:03:05;99723.59;;;25.54;51.05
30598;BME280;17365;48.878;8.334;2023-05-22T10:05:32;99719.97;;;25.82;51.42
30598;BME280;17365;48.878;8.334;2023-05-22T10:08:19;99719.78;;;24.90;52.54
30598;BME280;17365;48.878;8.334;2023-05-22T10:10:46;99715.75;;;25.52;52.86
30598;BME280;17365;48.878;8.334;2023-05-22T10:13:14;99724.59;;;25.12;53.20
30598;BME280;17365;48.878;8.334;2023-05-22T10:15:40;99714.03;;;25.24;53.45
30598;BME280;17365;48.878;8.334;2023-05-22T10:18:05;99718.50;;;25.24;53.32
30598;BME280;17365;48.878;8.334;2023-05-22T10:20:30;99710.94;;;25.18;52.42
30598;BME280;17365;48.878;8.334;2023-05-22T10:22:56;99717.44;;;24.85;53.29
30598;BME280;17365;48.878;8.334;2023-05-22T10:25:21;99711.09;;;25.29;52.34
30598;BME280;17365;48.878;8.334;2023-05-22T10:27:47;99706.91;;;25.25;53.20
30598;BME280;17365;48.878;8.334;2023-05-22T10:32:58;99704.38;;;25.50;50.82
30598;BME280;17365;48.878;8.334;2023-05-22T10:38:07;99705.03;;;25.27;52.74
30598;BME280;17365;48.878;8.334;2023-05-22T10:40:36;99704.56;;;25.47;51.99
30598;BME280;17365;48.878;8.334;2023-05-22T10:43:02;99702.81;;;25.61;51.23
30598;BME280;17365;48.878;8.334;2023-05-22T10:45:30;99697.22;;;25.11;53.06
30598;BME280;17365;48.878;8.334;2023-05-22T10:48:07;99697.50;;;25.61;51.30
30598;BME280;17365;48.878;8.334;2023-05-22T10:50:32;99690.88;;;25.53;52.23
30598;BME280;17365;48.878;8.334;2023-05-22T10:53:17;99689.81;;;25.56;51.56
30598;BME280;17365;48.878;8.334;2023-05-22T10:55:48;99691.41;;;25.59;52.60
30598;BME280;17365;48.878;8.334;2023-05-22T10:58:14;99686.31;;;25.55;51.52
30598;BME280;17365;48.878;8.334;2023-05-22T11:00:39;99676.78;;;25.66;51.33
30598;BME280;17365;48.878;8.334;2023-05-22T11:03:05;99669.59;;;25.93;50.94
30598;BME280;17365;48.878;8.334;2023-05-22T11:10:52;99664.81;;;26.49;48.96
30598;BME280;17365;48.878;8.334;2023-05-22T11:13:17;99659.00;;;26.44;48.27
30598;BME280;17365;48.878;8.334;2023-05-22T11:15:43;99665.91;;;26.08;48.58
30598;BME280;17365;48.878;8.334;2023-05-22T11:18:09;99662.50;;;26.32;48.83
30598;BME280;17365;48.878;8.334;2023-05-22T11:20:35;99654.31;;;26.09;48.37
30598;BME280;17365;48.878;8.334;2023-05-22T11:23:03;99644.41;;;26.24;50.01
30598;BME280;17365;48.878;8.334;2023-05-22T11:25:29;99650.38;;;26.28;49.06
30598;BME280;17365;48.878;8.334;2023-05-22T11:27:56;99648.00;;;26.36;48.84
30598;BME280;17365;48.878;8.334;2023-05-22T11:30:25;99644.47;;;26.74;48.69
30598;BME280;17365;48.878;8.334;2023-05-22T11:32:51;99647.00;;;27.12;47.14
30598;BME280;17365;48.878;8.334;2023-05-22T11:35:16;99643.81;;;27.07;47.48
30598;BME280;17365;48.878;8.334;2023-05-22T11:37:42;99640.91;;;26.86;47.63
30598;BME280;17365;48.878;8.334;2023-05-22T11:40:08;99641.91;;;26.59;48.35
30598;BME280;17365;48.878;8.334;2023-05-22T11:42:34;99643.53;;;27.22;46.72
30598;BME280;17365;48.878;8.334;2023-05-22T11:45:01;99634.16;;;27.41;45.56
30598;BME280;17365;48.878;8.334;2023-05-22T11:47:26;99633.94;;;26.59;46.07
30598;BME280;17365;48.878;8.334;2023-05-22T11:49:53;99627.34;;;27.02;45.90
30598;BME280;17365;48.878;8.334;2023-05-22T11:52:18;99627.78;;;27.54;45.16
30598;BME280;17365;48.878;8.334;2023-05-22T11:54:44;99624.28;;;27.19;44.92
30598;BME280;17365;48.878;8.334;2023-05-22T11:57:09;99617.84;;;27.45;44.35
30598;BME280;17365;48.878;8.334;2023-05-22T11:59:35;99618.00;;;27.20;44.36
30598;BME280;17365;48.878;8.334;2023-05-22T12:02:00;99620.66;;;27.55;43.52
30598;BME280;17365;48.878;8.334;2023-05-22T12:04:25;99623.41;;;27.89;43.27
30598;BME280;17365;48.878;8.334;2023-05-22T12:06:51;99622.09;;;27.59;44.29
30598;BME280;17365;48.878;8.334;2023-05-22T12:09:17;99619.16;;;27.75;43.83
30598;BME280;17365;48.878;8.334;2023-05-22T12:11:45;99624.88;;;28.04;43.91
30598;BME280;17365;48.878;8.334;2023-05-22T12:14:11;99621.44;;;27.33;44.20
30598;BME280;17365;48.878;8.334;2023-05-22T12:16:36;99630.66;;;27.16;43.78
30598;BME280;17365;48.878;8.334;2023-05-22T12:19:08;99635.06;;;27.28;43.22
30598;BME280;17365;48.878;8.334;2023-05-22T12:21:34;99629.22;;;27.94;42.55
30598;BME280;17365;48.878;8.334;2023-05-22T12:24:03;99636.41;;;27.58;40.85
30598;BME280;17365;48.878;8.334;2023-05-22T12:26:29;99628.75;;;27.53;41.16
30598;BME280;17365;48.878;8.334;2023-05-22T12:28:56;99630.50;;;27.07;41.68
30598;BME280;17365;48.878;8.334;2023-05-22T12:31:21;99630.59;;;27.29;42.69
30598;BME280;17365;48.878;8.334;2023-05-22T12:33:46;99624.50;;;27.51;42.34
30598;BME280;17365;48.878;8.334;2023-05-22T12:36:12;99626.41;;;27.38;42.28
30598;BME280;17365;48.878;8.334;2023-05-22T12:38:37;99625.22;;;27.42;41.81
30598;BME280;17365;48.878;8.334;2023-05-22T12:41:05;99616.59;;;27.38;42.50
30598;BME280;17365;48.878;8.334;2023-05-22T12:43:30;99614.94;;;27.95;41.33
30598;BME280;17365;48.878;8.334;2023-05-22T12:45:55;99610.56;;;27.94;41.00
30598;BME280;17365;48.878;8.334;2023-05-22T12:48:20;99607.19;;;28.03;40.50
30598;BME280;17365;48.878;8.334;2023-05-22T12:50:46;99607.22;;;27.21;42.48
30598;BME280;17365;48.878;8.334;2023-05-22T12:53:12;99602.28;;;27.74;41.66
30598;BME280;17365;48.878;8.334;2023-05-22T12:55:37;99582.56;;;28.22;41.89
30598;BME280;17365;48.878;8.334;2023-05-22T12:58:03;99589.97;;;28.07;41.58
30598;BME280;17365;48.878;8.334;2023-05-22T13:00:28;99586.56;;;28.50;39.47
30598;BME280;17365;48.878;8.334;2023-05-22T13:02:53;99588.66;;;28.46;39.70
30598;BME280;17365;48.878;8.334;2023-05-22T13:05:19;99584.03;;;28.48;38.76
30598;BME280;17365;48.878;8.334;2023-05-22T13:07:44;99590.94;;;28.39;39.51
30598;BME280;17365;48.878;8.334;2023-05-22T13:10:09;99584.28;;;28.23;39.79